Time;durP1;ratioP1;P1;durP2;ratioP2;P2;SDS_P1;SDS_P2;PMS_P1;PMS_P2;Temp;Humidity;BMP_temperature;BMP_pressure;BME280_temperature;BME280_humidity;BME280_pressure;Samples;Min_cycle;Max_cycle;Signal;HPM_P1;HPM_P2
2022/04/23 00:00:55;;;;;;;22.98;16.02;;;;;;;5.58;100.00;100311.42;1707602;84;21702;-78
2022/04/23 00:04:00;;;;;;;20.43;16.57;;;;;;;5.55;100.00;100308.98;1705949;84;21197;-79
2022/04/23 00:07:05;;;;;;;25.60;17.05;;;;;;;5.49;100.00;100313.64;1707196;84;21260;-79
2022/04/23 00:10:11;;;;;;;18.80;15.65;;;;;;;5.45;100.00;100319.84;1722399;83;21761;-78
2022/04/23 00:13:18;;;;;;;21.95;17.23;;;;;;;5.39;100.00;100324.00;1726704;83;21235;-78
2022/04/23 00:16:25;;;;;;;21.55;15.38;;;;;;;5.31;100.00;100327.91;1722403;83;21211;-78
2022/04/23 00:19:31;;;;;;;20.02;15.95;;;;;;;5.25;100.00;100321.70;1720846;83;21160;-78
2022/04/23 00:22:38;;;;;;;20.68;15.38;;;;;;;5.17;100.00;100319.34;1726957;83;21211;-78
2022/04/23 00:25:50;;;;;;;20.95;15.25;;;;;;;5.09;100.00;100323.63;1721006;83;21191;-78
2022/04/23 00:28:53;;;;;;;24.85;15.53;;;;;;;5.02;100.00;100314.84;1722466;83;21157;-78
2022/04/23 00:32:02;;;;;;;21.45;13.45;;;;;;;4.94;100.00;100300.65;1722550;83;21350;-78
2022/04/23 00:35:08;;;;;;;17.10;13.70;;;;;;;4.86;100.00;100301.84;1721190;82;21164;-78
2022/04/23 00:38:16;;;;;;;19.82;14.73;;;;;;;4.82;100.00;100300.40;1726773;83;21777;-78
2022/04/23 00:44:46;;;;;;;19.32;14.95;;;;;;;4.85;100.00;100269.81;1726579;83;21220;-79
2022/04/23 00:47:53;;;;;;;23.65;16.77;;;;;;;4.94;100.00;100261.81;1721601;83;21222;-77
2022/04/23 00:51:03;;;;;;;25.68;20.27;;;;;;;5.01;100.00;100260.27;1720987;83;21219;-77
2022/04/23 00:54:12;;;;;;;26.57;21.62;;;;;;;5.06;100.00;100257.48;1727289;83;21167;-77
2022/04/23 00:57:19;;;;;;;26.35;19.25;;;;;;;5.11;100.00;100264.69;1722219;83;21176;-77
2022/04/23 01:00:25;;;;;;;28.32;20.90;;;;;;;5.15;100.00;100267.13;1722396;83;21164;-77
2022/04/23 01:03:32;;;;;;;47.00;26.33;;;;;;;5.17;100.00;100261.05;1726084;83;21187;-78
2022/04/23 01:06:40;;;;;;;34.67;23.05;;;;;;;5.16;100.00;100262.91;1722393;83;21148;-78
2022/04/23 01:09:48;;;;;;;41.08;26.65;;;;;;;5.13;100.00;100259.99;1714150;83;21239;-78
2022/04/23 01:12:55;;;;;;;35.60;26.02;;;;;;;5.10;100.00;100253.48;1706049;84;21180;-78
2022/04/23 01:16:14;;;;;;;42.62;24.23;;;;;;;5.08;100.00;100251.44;1707330;84;21145;-78
2022/04/23 01:19:21;;;;;;;50.58;28.52;;;;;;;5.05;100.00;100238.66;1706088;84;21177;-78
2022/04/23 01:22:29;;;;;;;59.60;41.40;;;;;;;5.01;100.00;100233.16;1706265;84;21207;-78
2022/04/23 01:25:36;;;;;;;55.92;40.73;;;;;;;4.96;100.00;100236.80;1706134;84;21200;-79
2022/04/23 01:28:43;;;;;;;41.45;31.00;;;;;;;4.91;100.00;100248.56;1705987;84;21185;-78
2022/04/23 01:31:51;;;;;;;32.73;23.32;;;;;;;4.86;100.00;100256.62;1707292;84;21240;-78
2022/04/23 01:34:57;;;;;;;35.10;22.62;;;;;;;4.83;100.00;100258.23;1706692;84;21240;-78
2022/04/23 01:38:03;;;;;;;30.97;21.27;;;;;;;4.81;100.00;100254.83;1706279;84;21211;-78
2022/04/23 01:41:10;;;;;;;30.60;20.92;;;;;;;4.78;100.00;100254.25;1707256;84;21204;-78
2022/04/23 01:44:17;;;;;;;30.08;21.77;;;;;;;4.75;100.00;100252.69;1705921;84;21264;-78
2022/04/23 01:47:24;;;;;;;31.27;21.20;;;;;;;4.72;100.00;100242.12;1706998;84;21240;-78
2022/04/23 01:50:30;;;;;;;37.75;28.07;;;;;;;4.69;100.00;100245.10;1761721;81;21200;-83
2022/04/23 01:53:36;;;;;;;34.80;23.75;;;;;;;4.69;100.00;100245.60;1764358;80;21208;-83
2022/04/23 01:56:42;;;;;;;39.03;23.65;;;;;;;4.67;100.00;100244.40;1761647;81;21224;-82
2022/04/23 01:59:48;;;;;;;31.80;21.80;;;;;;;4.62;100.00;100239.91;1761601;81;21168;-83
2022/04/23 02:02:57;;;;;;;28.85;21.65;;;;;;;4.55;100.00;100239.58;1762467;80;21184;-83
2022/04/23 02:06:05;;;;;;;34.15;22.27;;;;;;;4.51;100.00;100238.64;1761829;81;21203;-83
2022/04/23 02:09:12;;;;;;;32.28;21.85;;;;;;;4.45;100.00;100233.30;1762984;81;21760;-83
2022/04/23 02:12:18;;;;;;;29.40;20.62;;;;;;;4.42;100.00;100227.29;1762625;80;21238;-83
2022/04/23 02:15:26;;;;;;;30.97;21.20;;;;;;;4.39;100.00;100225.73;1762306;81;21172;-83
2022/04/23 02:18:33;;;;;;;34.92;23.70;;;;;;;4.36;100.00;100220.58;1761544;81;21183;-82
2022/04/23 02:21:40;;;;;;;46.73;33.02;;;;;;;4.32;100.00;100205.60;1761588;80;21756;-81
2022/04/23 02:24:47;;;;;;;40.75;27.77;;;;;;;4.30;100.00;100197.63;1762844;81;21207;-82
2022/04/23 02:27:55;;;;;;;34.50;24.90;;;;;;;4.28;100.00;100194.22;1762244;80;21721;-82
2022/04/23 02:31:01;;;;;;;36.40;26.57;;;;;;;4.25;100.00;100184.16;1761592;81;21744;-83
2022/04/23 02:34:08;;;;;;;38.50;29.77;;;;;;;4.21;100.00;100183.56;1762206;81;21280;-83
2022/04/23 02:37:14;;;;;;;52.95;42.48;;;;;;;4.17;100.00;100201.08;1761642;81;21239;-83
2022/04/23 02:40:19;;;;;;;67.70;55.30;;;;;;;4.15;100.00;100212.55;1763028;81;21713;-83
2022/04/23 02:43:26;;;;;;;46.60;36.98;;;;;;;4.14;100.00;100221.68;1761732;81;21207;-83
2022/04/23 02:46:33;;;;;;;40.35;28.90;;;;;;;4.15;100.00;100234.21;1761819;80;21187;-82
2022/04/23 02:49:39;;;;;;;38.13;27.07;;;;;;;4.17;100.00;100233.56;1762064;81;21187;-83
2022/04/23 02:52:48;;;;;;;36.83;26.97;;;;;;;4.22;100.00;100238.06;1762510;80;21249;-83
2022/04/23 02:56:02;;;;;;;51.53;38.78;;;;;;;4.26;100.00;100234.59;1762566;81;21152;-83
2022/04/23 02:58:57;;;;;;;39.45;29.25;;;;;;;4.29;100.00;100227.56;1761690;81;21175;-83
2022/04/23 03:02:03;;;;;;;34.30;25.68;;;;;;;4.31;100.00;100229.63;1762704;80;21223;-83
2022/04/23 03:05:12;;;;;;;32.63;23.32;;;;;;;4.33;100.00;100212.26;1761829;81;21207;-83
2022/04/23 03:08:19;;;;;;;31.23;23.95;;;;;;;4.35;100.00;100221.08;1761353;80;21242;-83
2022/04/23 03:11:23;;;;;;;47.95;40.12;;;;;;;4.38;100.00;100229.44;1763073;81;21164;-82
2022/04/23 03:14:31;;;;;;;39.83;34.78;;;;;;;4.40;100.00;100213.90;1761589;81;21175;-82
2022/04/23 03:17:39;;;;;;;27.37;18.92;;;;;;;4.44;100.00;100196.87;1762361;80;21222;-78
2022/04/23 03:20:47;;;;;;;25.70;17.52;;;;;;;4.49;100.00;100196.81;1762793;81;21200;-78
2022/04/23 03:23:53;;;;;;;33.33;24.07;;;;;;;4.58;100.00;100189.70;1763137;81;21176;-82
2022/04/23 03:27:01;;;;;;;35.63;28.73;;;;;;;4.68;100.00;100182.43;1762293;80;21179;-82
2022/04/23 03:30:08;;;;;;;25.52;18.45;;;;;;;4.77;100.00;100182.94;1762985;81;21152;-82
2022/04/23 03:33:14;;;;;;;26.90;19.77;;;;;;;4.88;100.00;100189.56;1761377;80;21227;-83
2022/04/23 03:36:21;;;;;;;27.27;16.87;;;;;;;4.99;100.00;100183.66;1762454;81;21207;-83
2022/04/23 03:39:28;;;;;;;28.70;20.70;;;;;;;5.10;100.00;100191.12;1763119;81;21821;-83
2022/04/23 03:42:34;;;;;;;34.23;20.65;;;;;;;5.23;100.00;100203.55;1762349;80;21223;-81
2022/04/23 03:45:41;;;;;;;28.07;19.62;;;;;;;5.32;100.00;100219.80;1761592;81;21171;-82
2022/04/23 03:48:48;;;;;;;25.60;16.93;;;;;;;5.39;100.00;100224.13;1761355;81;21214;-83
2022/04/23 03:51:54;;;;;;;27.20;18.60;;;;;;;5.45;100.00;100214.55;1756033;81;21179;-83
2022/04/23 03:55:00;;;;;;;29.82;18.87;;;;;;;5.51;100.00;100215.34;1757033;81;21827;-82
2022/04/23 03:58:06;;;;;;;29.55;18.87;;;;;;;5.58;100.00;100217.81;1756078;81;21211;-82
2022/04/23 04:01:13;;;;;;;30.65;20.02;;;;;;;5.71;100.00;100222.43;1755632;81;21172;-82
2022/04/23 04:04:20;;;;;;;37.50;20.57;;;;;;;5.88;100.00;100218.95;1756843;81;21152;-82
2022/04/23 04:07:27;;;;;;;56.63;29.18;;;;;;;6.08;100.00;100221.11;1756249;80;21227;-83
2022/04/23 04:10:33;;;;;;;64.40;30.92;;;;;;;6.23;100.00;100198.38;1757078;81;21454;-82
2022/04/23 04:13:39;;;;;;;57.53;29.37;;;;;;;6.32;100.00;100210.20;1755747;80;21270;-81
2022/04/23 04:16:49;;;;;;;74.03;36.33;;;;;;;6.42;100.00;100216.94;1755740;80;21741;-82
2022/04/23 04:19:53;;;;;;;64.25;32.03;;;;;;;6.52;100.00;100211.80;1755710;81;21214;-83
2022/04/23 04:23:01;;;;;;;77.62;36.70;;;;;;;6.61;100.00;100216.31;1756369;80;21204;-82
2022/04/23 04:26:06;;;;;;;70.83;36.35;;;;;;;6.68;100.00;100209.78;1734513;81;21841;-83
2022/04/23 04:29:11;;;;;;;67.05;32.70;;;;;;;6.74;100.00;100207.80;1757040;81;21149;-83
2022/04/23 04:32:17;;;;;;;61.02;29.92;;;;;;;6.82;100.00;100216.05;1755871;81;21235;-83
2022/04/23 04:35:23;;;;;;;68.02;35.55;;;;;;;6.96;100.00;100218.70;1756037;81;21188;-82
2022/04/23 04:38:30;;;;;;;60.55;31.52;;;;;;;7.12;100.00;100224.81;1755685;80;21212;-82
2022/04/23 04:41:37;;;;;;;57.88;30.80;;;;;;;7.29;100.00;100229.40;1757054;80;21208;-82
2022/04/23 04:44:44;;;;;;;54.98;27.32;;;;;;;7.43;100.00;100227.47;1756995;81;21140;-81
2022/04/23 04:47:51;;;;;;;49.98;26.80;;;;;;;7.52;100.00;100229.72;1755814;81;21179;-83
2022/04/23 04:50:58;;;;;;;47.75;28.23;;;;;;;7.61;100.00;100229.28;1756568;81;21204;-82
2022/04/23 04:54:03;;;;;;;42.83;23.65;;;;;;;7.68;100.00;100224.41;1757064;81;21220;-83
2022/04/23 04:57:10;;;;;;;42.75;23.77;;;;;;;7.73;100.00;100232.09;1756777;81;21191;-83
2022/04/23 05:00:18;;;;;;;51.98;27.07;;;;;;;7.77;100.00;100240.30;1756914;81;21808;-83
2022/04/23 05:03:19;;;;;;;42.75;23.60;;;;;;;7.83;100.00;100228.76;1756024;80;21235;-82
2022/04/23 05:06:26;;;;;;;46.37;25.02;;;;;;;7.90;100.00;100228.48;1756445;81;21215;-82
2022/04/23 05:09:33;;;;;;;37.90;22.27;;;;;;;7.99;100.00;100245.70;1755849;81;21753;-82
2022/04/23 05:12:39;;;;;;;37.80;21.12;;;;;;;8.08;100.00;100245.23;1755769;80;21756;-82
2022/04/23 05:15:45;;;;;;;28.00;16.52;;;;;;;8.17;100.00;100236.95;1757197;81;21211;-82
2022/04/23 05:18:50;;;;;;;29.32;16.77;;;;;;;8.27;100.00;100232.73;1755700;81;21200;-81
2022/04/23 05:21:59;;;;;;;30.25;17.07;;;;;;;8.36;100.00;100228.17;1756274;81;21164;-81
2022/04/23 05:25:05;;;;;;;24.72;15.30;;;;;;;8.51;100.00;100233.88;1756893;81;21216;-83
2022/04/23 05:28:11;;;;;;;28.55;15.88;;;;;;;8.65;100.00;100234.09;1755680;80;21195;-82
2022/04/23 05:31:11;;;;;;;27.48;15.13;;;;;;;8.73;100.00;100227.83;1755778;81;21246;-82
2022/04/23 05:34:16;;;;;;;24.80;14.73;;;;;;;8.71;100.00;100218.97;1756993;81;21725;-82
2022/04/23 05:37:23;;;;;;;19.10;12.68;;;;;;;8.69;100.00;100210.09;1756206;80;21188;-82
2022/04/23 05:40:28;;;;;;;20.02;11.73;;;;;;;8.62;100.00;100209.06;1757097;81;21164;-83
2022/04/23 05:43:34;;;;;;;18.48;11.10;;;;;;;8.58;100.00;100211.77;1755935;80;21204;-82
2022/04/23 05:46:40;;;;;;;13.18;8.48;;;;;;;8.54;100.00;100196.25;1757031;80;21725;-82
2022/04/23 05:49:46;;;;;;;14.75;8.28;;;;;;;8.50;100.00;100200.32;1756950;81;21705;-83
2022/04/23 05:52:55;;;;;;;15.25;8.83;;;;;;;8.53;100.00;100203.24;1755800;80;21208;-82
2022/04/23 05:56:03;;;;;;;14.85;8.38;;;;;;;8.58;100.00;100204.95;1755979;81;21180;-83
2022/04/23 05:59:08;;;;;;;11.20;7.70;;;;;;;8.63;100.00;100203.43;1756113;81;21172;-82
2022/04/23 06:02:14;;;;;;;12.53;7.55;;;;;;;8.65;100.00;100215.02;1756983;80;21212;-82
2022/04/23 06:05:21;;;;;;;11.90;7.08;;;;;;;8.68;100.00;100207.88;1757354;81;21137;-82
2022/04/23 06:08:28;;;;;;;10.23;7.72;;;;;;;8.75;100.00;100203.98;1757041;81;21148;-82
2022/04/23 06:11:35;;;;;;;9.23;7.05;;;;;;;8.79;100.00;100206.70;1757407;81;21725;-82
2022/04/23 06:14:34;;;;;;;9.33;6.80;;;;;;;8.80;100.00;100220.70;1757309;81;21157;-82
2022/04/23 06:17:34;;;;;;;13.58;8.95;;;;;;;8.81;100.00;100216.09;1756837;80;21204;-82
2022/04/23 06:20:40;;;;;;;10.98;7.10;;;;;;;8.82;100.00;100221.38;1757266;81;21172;-82
2022/04/23 06:23:33;;;;;;;9.80;6.53;;;;;;;8.87;100.00;100226.33;1755840;81;21207;-82
2022/04/23 06:26:39;;;;;;;10.45;6.40;;;;;;;8.91;98.44;100223.09;1755850;80;21223;-82
2022/04/23 06:29:49;;;;;;;9.45;5.85;;;;;;;8.93;97.49;100219.68;1732014;81;21251;-79
2022/04/23 06:32:55;;;;;;;20.72;6.62;;;;;;;8.94;95.61;100207.77;1755975;80;21753;-82
2022/04/23 06:36:02;;;;;;;11.43;6.75;;;;;;;8.90;94.41;100208.27;1756034;81;21477;-79
2022/04/23 06:39:08;;;;;;;12.15;6.55;;;;;;;8.86;93.25;100218.66;1756723;81;21180;-79
2022/04/23 06:42:15;;;;;;;9.23;6.80;;;;;;;8.86;92.07;100219.17;1757177;80;21207;-77
2022/04/23 06:45:20;;;;;;;14.03;7.42;;;;;;;8.90;92.67;100220.55;1757215;81;21749;-78
2022/04/23 06:48:26;;;;;;;9.38;6.62;;;;;;;9.03;94.14;100222.25;1755837;80;21274;-78
2022/04/23 06:51:32;;;;;;;11.18;7.12;;;;;;;9.13;92.90;100219.39;1757244;80;21168;-78
2022/04/23 06:54:39;;;;;;;8.33;6.35;;;;;;;9.23;92.35;100213.25;1744219;81;21170;-77
2022/04/23 06:57:52;;;;;;;10.78;6.10;;;;;;;9.38;91.71;100213.42;1746917;81;21721;-77
2022/04/23 07:00:53;;;;;;;8.10;6.15;;;;;;;9.54;91.18;100215.28;1741759;81;21699;-78
2022/04/23 07:04:00;;;;;;;7.62;5.10;;;;;;;9.70;88.91;100212.03;1754906;81;21754;-78
2022/04/23 07:07:08;;;;;;;9.50;5.40;;;;;;;9.86;87.54;100204.30;1751492;80;21171;-78
2022/04/23 07:10:15;;;;;;;8.80;5.03;;;;;;;10.02;84.81;100206.64;1752388;81;21162;-78
2022/04/23 07:13:20;;;;;;;8.08;5.25;;;;;;;10.11;83.92;100195.52;1747562;80;21222;-78
2022/04/23 07:16:27;;;;;;;7.47;4.47;;;;;;;10.22;82.30;100188.31;1743427;81;21159;-79
2022/04/23 07:19:34;;;;;;;7.33;4.37;;;;;;;10.29;79.02;100183.02;1749905;81;21649;-78
2022/04/23 07:24:02;;;;;;;6.50;4.35;;;;;;;10.38;78.30;100178.36;1746989;80;21788;-78
2022/04/23 07:25:49;;;;;;;6.55;4.28;;;;;;;10.50;79.47;100185.15;1748694;81;21149;-79
2022/04/23 07:28:54;;;;;;;7.10;4.70;;;;;;;10.65;79.71;100181.13;1751761;81;21166;-79
2022/04/23 07:32:00;;;;;;;5.40;4.53;;;;;;;10.72;77.84;100176.63;1752066;80;21210;-78
2022/04/23 07:38:31;;;;;;;6.53;4.50;;;;;;;10.84;79.34;100162.88;1750509;80;21668;-78
2022/04/23 07:41:37;;;;;;;5.50;4.33;;;;;;;11.00;78.87;100168.22;1750443;80;21151;-79
2022/04/23 07:44:43;;;;;;;6.60;4.10;;;;;;;11.11;76.21;100163.38;1739925;81;21174;-78
2022/04/23 07:47:44;;;;;;;7.97;4.50;;;;;;;11.18;76.22;100165.70;1723463;83;21225;-77
2022/04/23 07:50:37;;;;;;;4.15;3.67;;;;;;;11.29;76.25;100177.57;1724365;83;21257;-78
2022/04/23 07:53:42;;;;;;;5.97;4.00;;;;;;;11.37;74.62;100176.14;1724326;83;21238;-77
2022/04/23 07:56:48;;;;;;;7.25;4.15;;;;;;;11.44;73.95;100170.27;1700713;84;21215;-77
2022/04/23 07:59:55;;;;;;;4.78;3.70;;;;;;;11.56;74.40;100167.07;1701477;84;21176;-78
2022/04/23 08:03:06;;;;;;;5.87;3.60;;;;;;;11.66;72.07;100150.69;1700097;84;21262;-78
2022/04/23 08:06:13;;;;;;;7.08;3.87;;;;;;;11.77;72.16;100140.66;1701972;84;21184;-78
2022/04/23 08:09:19;;;;;;;4.22;3.37;;;;;;;11.90;67.55;100142.78;1700725;84;21215;-78
2022/04/23 08:12:25;;;;;;;6.62;3.52;;;;;;;11.92;65.84;100138.47;1701546;84;21219;-78
2022/04/23 08:15:31;;;;;;;6.12;4.22;;;;;;;11.90;66.85;100134.55;1700737;84;21180;-79
2022/04/23 08:18:36;;;;;;;8.55;4.60;;;;;;;11.93;65.78;100142.37;1700856;84;21785;-77
2022/04/23 08:21:44;;;;;;;7.72;4.08;;;;;;;11.98;65.47;100145.92;1700800;84;21212;-78
2022/04/23 08:24:51;;;;;;;11.28;5.00;;;;;;;12.02;63.20;100141.25;1700815;84;21787;-78
2022/04/23 08:31:26;;;;;;;13.68;5.92;;;;;;;12.05;60.08;100122.73;1700854;84;21227;-78
2022/04/23 08:34:32;;;;;;;8.73;3.83;;;;;;;12.09;59.29;100109.83;1701999;84;21176;-79
2022/04/23 08:37:39;;;;;;;11.08;4.50;;;;;;;12.13;55.37;100115.23;1705915;82;21709;-78
2022/04/23 08:40:49;;;;;;;10.00;3.40;;;;;;;12.16;54.36;100114.86;1702311;84;21263;-78
2022/04/23 08:43:56;;;;;;;8.48;3.65;;;;;;;12.17;52.45;100112.97;1703337;84;21235;-78
2022/04/23 08:46:58;;;;;;;6.75;3.58;;;;;;;12.20;53.11;100118.08;1703299;84;21260;-78
2022/04/23 08:50:05;;;;;;;7.58;3.35;;;;;;;12.27;53.10;100118.47;1703299;84;21180;-78
2022/04/23 08:53:15;;;;;;;6.58;4.17;;;;;;;12.37;55.56;100113.20;1702328;84;21792;-78
2022/04/23 08:56:23;;;;;;;5.90;3.60;;;;;;;12.49;56.40;100104.28;1710830;83;21215;-79
2022/04/23 08:59:29;;;;;;;4.97;3.50;;;;;;;12.54;55.59;100104.55;1727369;83;21706;-78
2022/04/23 09:02:36;;;;;;;8.50;4.45;;;;;;;12.60;55.01;100100.17;1725882;83;21204;-79
2022/04/23 09:05:44;;;;;;;12.15;5.22;;;;;;;12.63;55.79;100098.95;1727303;83;21796;-77
2022/04/23 09:09:13;;;;;;;12.03;5.83;;;;;;;12.67;55.10;100097.52;1725949;83;21200;-78
2022/04/23 09:12:19;;;;;;;6.70;3.60;;;;;;;12.65;53.99;100089.46;1727081;81;21192;-78
2022/04/23 09:25:44;;;;;;;11.05;3.20;;;;;;;12.56;52.41;100064.56;1749462;81;21161;-78
2022/04/23 09:29:00;;;;;;;4.87;3.27;;;;;;;12.50;51.51;100057.97;1752937;81;21122;-78
2022/04/23 09:32:20;;;;;;;12.55;3.25;;;;;;;12.47;52.37;100046.03;1755457;80;21233;-78
2022/04/23 09:35:27;;;;;;;9.15;3.90;;;;;;;12.39;51.05;100045.30;1755015;81;21233;-78
2022/04/23 09:38:34;;;;;;;15.75;5.25;;;;;;;12.28;51.60;100048.89;1754207;82;21271;-78
2022/04/23 09:41:33;;;;;;;11.45;3.95;;;;;;;12.21;52.21;100036.14;1754426;82;21674;-78
2022/04/23 09:44:38;;;;;;;12.37;5.03;;;;;;;12.11;52.93;100024.11;1755545;82;21164;-78
2022/04/23 09:47:46;;;;;;;13.85;7.15;;;;;;;12.01;50.61;100023.05;1744269;81;21255;-78
2022/04/23 09:50:54;;;;;;;84.80;33.33;;;;;;;11.95;50.71;100026.57;1724046;83;21789;-82
2022/04/23 09:53:59;;;;;;;71.95;30.80;;;;;;;11.92;51.95;100042.02;1723818;83;21161;-82
2022/04/23 09:56:59;;;;;;;43.05;20.90;;;;;;;11.95;55.15;100043.02;1722879;81;21768;-79
2022/04/23 10:00:06;;;;;;;46.40;24.52;;;;;;;11.96;56.36;100044.71;1722418;82;21173;-78
2022/04/23 10:03:13;;;;;;;41.73;24.05;;;;;;;12.01;57.23;100053.20;1722285;81;21789;-78
2022/04/23 10:06:20;;;;;;;26.05;14.58;;;;;;;12.10;58.23;100053.09;1722026;82;21800;-79
2022/04/23 10:09:34;;;;;;;14.20;9.00;;;;;;;12.20;55.61;100055.86;1723621;83;21754;-78
2022/04/23 10:12:41;;;;;;;18.82;8.60;;;;;;;12.29;56.13;100049.73;1722148;81;21200;-78
2022/04/23 10:15:48;;;;;;;14.80;7.97;;;;;;;12.38;55.22;100047.73;1723152;83;21224;-78
2022/04/23 10:18:55;;;;;;;13.20;7.15;;;;;;;12.48;53.10;100051.00;1722499;82;21740;-78
2022/04/23 10:22:29;;;;;;;8.10;4.72;;;;;;;12.52;53.83;100039.97;1722381;81;21216;-78
2022/04/23 10:29:23;;;;;;;8.25;4.28;;;;;;;12.40;53.67;100047.84;1695296;84;21773;-78
2022/04/23 10:32:29;;;;;;;9.13;5.08;;;;;;;12.27;55.15;100052.66;1693709;84;21207;-78
2022/04/23 10:35:39;;;;;;;10.40;5.37;;;;;;;12.19;55.83;100047.31;1696634;84;21176;-78
2022/04/23 10:38:51;;;;;;;12.28;5.00;;;;;;;12.14;56.26;100042.05;1694345;84;21247;-78
2022/04/23 10:41:54;;;;;;;5.92;3.98;;;;;;;12.13;60.85;100038.98;1696482;84;21176;-79
2022/04/23 10:45:00;;;;;;;5.75;3.52;;;;;;;12.09;59.78;100043.16;1696662;84;21220;-78
2022/04/23 10:48:07;;;;;;;6.90;3.58;;;;;;;12.11;59.14;100039.19;1690356;84;21299;-78
2022/04/23 10:51:23;;;;;;;6.72;3.22;;;;;;;12.17;59.97;100044.41;1668089;86;21199;-79
2022/04/23 10:54:51;;;;;;;5.30;3.87;;;;;;;12.23;60.36;100033.55;1674101;84;21184;-78
2022/04/23 10:58:00;;;;;;;5.20;3.30;;;;;;;12.27;60.51;100013.41;1696092;83;21203;-78
2022/04/23 11:01:36;;;;;;;5.72;2.92;;;;;;;12.26;60.81;100013.94;1696701;84;21204;-78
2022/04/23 11:12:14;;;;;;;11.50;3.65;;;;;;;12.26;62.47;99994.74;1696402;84;21745;-78
2022/04/23 11:14:49;;;;;;;7.45;3.87;;;;;;;12.16;65.08;99999.70;1696438;84;21298;-78
2022/04/23 11:17:59;;;;;;;6.62;3.30;;;;;;;12.17;65.67;100000.55;1695742;84;21219;-78
2022/04/23 11:21:04;;;;;;;;;;;;;;;12.19;66.57;100002.06;1699209;84;21180;-78
2022/04/23 11:24:11;;;;;;;8.78;3.90;;;;;;;12.24;65.79;100002.33;1672041;84;20182;-78
2022/04/23 11:27:39;;;;;;;3.45;3.00;;;;;;;12.25;63.73;100005.39;1696284;84;21200;-78
2022/04/23 11:30:46;;;;;;;4.12;3.05;;;;;;;12.28;62.33;99990.45;1668247;86;21795;-77
2022/04/23 11:34:02;;;;;;;10.43;3.22;;;;;;;12.36;61.20;100002.65;1662055;86;21212;-78
2022/04/23 11:37:08;;;;;;;3.55;3.00;;;;;;;12.42;60.64;99989.55;1632291;87;21208;-78
2022/04/23 11:40:24;;;;;;;3.85;2.77;;;;;;;12.48;59.99;99994.23;1638461;87;21200;-78
2022/04/23 11:43:41;;;;;;;4.87;2.83;;;;;;;12.56;59.61;99986.37;1667215;84;21211;-78
2022/04/23 11:46:55;;;;;;;4.92;2.85;;;;;;;12.65;58.27;99980.23;1667448;86;21247;-78
2022/04/23 11:50:03;;;;;;;3.50;2.55;;;;;;;12.72;57.15;99978.41;1667385;86;21231;-79
2022/04/23 11:53:11;;;;;;;6.17;3.67;;;;;;;12.82;58.29;99973.42;1667689;86;21223;-78
2022/04/23 11:56:16;;;;;;;5.22;3.20;;;;;;;12.92;59.21;99972.54;1668298;86;21791;-78
2022/04/23 11:59:22;;;;;;;4.28;2.58;;;;;;;12.99;58.92;99973.45;1667784;85;21297;-78
2022/04/23 12:02:34;;;;;;;5.20;2.60;;;;;;;13.01;58.65;99967.75;1667215;86;21804;-78
2022/04/23 12:05:37;;;;;;;6.40;2.60;;;;;;;13.01;58.33;99964.48;1668386;86;21195;-78
2022/04/23 12:08:43;;;;;;;5.03;2.98;;;;;;;13.05;58.94;99962.19;1667213;86;21259;-78
2022/04/23 12:11:50;;;;;;;5.03;2.90;;;;;;;13.05;57.35;99952.58;1666956;86;21270;-78
2022/04/23 12:14:58;;;;;;;8.58;2.72;;;;;;;13.04;56.80;99939.91;1666936;84;21263;-78
2022/04/23 12:18:04;;;;;;;5.35;2.90;;;;;;;13.06;56.83;99926.81;1667749;86;21247;-78
2022/04/23 12:21:14;;;;;;;4.35;2.65;;;;;;;13.09;56.97;99921.45;1668359;86;21282;-79
2022/04/23 12:24:26;;;;;;;5.42;3.22;;;;;;;13.05;56.60;99921.84;1667730;86;21812;-78
2022/04/23 12:27:33;;;;;;;3.77;2.45;;;;;;;13.02;56.20;99918.13;1667567;86;21861;-78
2022/04/23 12:41:08;;;;;;;4.30;2.95;;;;;;;12.77;57.55;99913.64;1660846;86;20200;-78
2022/04/23 12:44:26;;;;;;;5.22;3.15;;;;;;;12.69;57.89;99906.92;1661736;84;21794;-78
2022/04/23 12:47:43;;;;;;;5.62;3.15;;;;;;;12.66;58.79;99892.78;1674662;84;21244;-78
2022/04/23 12:50:50;;;;;;;5.70;2.87;;;;;;;12.64;58.11;99882.51;1687893;85;21168;-78
2022/04/23 12:53:57;;;;;;;3.35;2.40;;;;;;;12.66;58.05;99882.64;1688594;85;21208;-79
2022/04/23 12:57:03;;;;;;;5.53;3.27;;;;;;;12.70;57.83;99881.70;1688720;85;21216;-78
2022/04/23 13:00:09;;;;;;;5.97;3.08;;;;;;;12.75;57.38;99879.20;1671407;85;21220;-79
2022/04/23 13:03:33;;;;;;;11.57;5.30;;;;;;;12.81;57.49;99858.36;1688649;85;21376;-83
2022/04/23 13:09:57;;;;;;;10.82;6.22;;;;;;;12.86;56.70;99848.46;1690492;83;21151;-79
2022/04/23 13:13:03;;;;;;;15.03;6.15;;;;;;;12.83;55.49;99855.72;1716449;83;21173;-83
2022/04/23 13:16:09;;;;;;;11.00;6.22;;;;;;;12.79;56.01;99844.81;1717575;83;21214;-83
2022/04/23 13:19:15;;;;;;;16.85;8.05;;;;;;;12.78;56.23;99839.02;1717642;83;21719;-83
2022/04/23 13:22:16;;;;;;;21.00;9.23;;;;;;;12.81;56.54;99846.01;1717406;83;21187;-83
2022/04/23 13:25:25;;;;;;;24.98;11.03;;;;;;;12.85;56.81;99845.41;1717078;83;21139;-83
2022/04/23 13:28:32;;;;;;;19.85;9.38;;;;;;;12.91;56.96;99842.37;1718160;83;21179;-82
2022/04/23 13:31:43;;;;;;;22.65;10.08;;;;;;;12.90;55.40;99829.70;1710137;83;21238;-82
2022/04/23 13:34:47;;;;;;;20.90;8.55;;;;;;;12.83;55.70;99820.04;1710867;84;21459;-83
2022/04/23 13:37:54;;;;;;;16.57;8.15;;;;;;;12.74;55.09;99819.34;1710383;84;21246;-83
2022/04/23 13:41:00;;;;;;;16.60;7.72;;;;;;;12.62;54.07;99826.47;1709892;84;21197;-82
2022/04/23 13:44:02;;;;;;;20.90;8.90;;;;;;;12.51;54.82;99825.14;1710104;84;21713;-82
2022/04/23 13:47:07;;;;;;;16.12;8.88;;;;;;;12.43;55.42;99821.17;1711189;84;21720;-82
2022/04/23 13:50:14;;;;;;;20.27;11.12;;;;;;;12.35;55.92;99816.36;1711486;84;21203;-82
2022/04/23 13:53:20;;;;;;;19.50;9.98;;;;;;;12.26;57.57;99832.11;1710262;84;21230;-82
2022/04/23 13:56:26;;;;;;;23.25;11.30;;;;;;;12.16;58.46;99837.09;1710185;84;21268;-83
2022/04/23 13:59:34;;;;;;;22.82;11.25;;;;;;;12.13;58.68;99838.85;1711265;84;21847;-83
2022/04/23 14:12:46;;;;;;;12.73;6.72;;;;;;;12.12;58.68;99894.20;1710259;82;21806;-82
2022/04/23 14:15:53;;;;;;;13.45;6.10;;;;;;;12.08;56.18;99931.80;1710091;84;21158;-82
2022/04/23 14:19:02;;;;;;;13.70;8.20;;;;;;;12.04;55.26;99921.74;1693638;84;21460;-82
2022/04/23 14:22:10;;;;;;;13.08;7.08;;;;;;;11.99;56.67;99924.22;1682662;85;21225;-82
2022/04/23 14:25:18;;;;;;;6.33;4.35;;;;;;;11.93;56.99;99927.23;1681634;83;21202;-82
2022/04/23 14:28:25;;;;;;;5.95;3.75;;;;;;;11.89;56.49;99916.84;1683183;85;21311;-83
2022/04/23 14:31:31;;;;;;;4.08;3.02;;;;;;;11.85;56.88;99912.80;1689462;84;21203;-82
2022/04/23 14:34:36;;;;;;;7.55;3.22;;;;;;;11.80;56.60;99896.90;1700654;84;21195;-82
2022/04/23 14:37:36;;;;;;;5.80;3.60;;;;;;;11.75;54.94;99892.53;1701645;84;21279;-82
2022/04/23 14:40:44;;;;;;;7.67;3.25;;;;;;;11.70;53.46;99882.67;1700801;83;21800;-82
2022/04/23 14:43:49;;;;;;;7.78;3.27;;;;;;;11.66;52.97;99893.69;1700759;84;21231;-82
2022/04/23 14:46:54;;;;;;;5.87;3.08;;;;;;;11.63;53.15;99898.20;1700753;84;21752;-83
2022/04/23 14:50:02;;;;;;;5.90;2.98;;;;;;;11.59;53.19;99899.63;1700783;83;21191;-82
2022/04/23 14:53:12;;;;;;;5.17;3.00;;;;;;;11.56;52.26;99905.48;1701292;84;21227;-82
2022/04/23 14:56:19;;;;;;;4.60;2.65;;;;;;;11.54;52.81;99904.31;1700584;84;21224;-82
2022/04/23 14:59:27;;;;;;;4.70;3.10;;;;;;;11.53;52.81;99893.04;1702137;84;21777;-82
2022/04/23 15:02:33;;;;;;;4.55;2.90;;;;;;;11.55;51.61;99890.09;1701462;84;21243;-82
2022/04/23 15:05:41;;;;;;;4.33;2.60;;;;;;;11.59;52.28;99871.71;1700949;83;21735;-83
2022/04/23 15:08:48;;;;;;;3.40;3.00;;;;;;;11.65;52.52;99857.75;1700610;84;21811;-83
2022/04/23 15:11:53;;;;;;;4.42;2.70;;;;;;;11.70;51.26;99847.06;1700528;83;21215;-83
2022/04/23 15:15:00;;;;;;;3.92;3.00;;;;;;;11.75;52.03;99835.84;1700892;84;21187;-83
2022/04/23 15:18:06;;;;;;;4.72;3.02;;;;;;;11.83;52.56;99840.91;1701190;84;21352;-82